createdAt,value
2022-08-05T00:04:56.785Z,4.38
2022-08-05T00:09:58.311Z,2.15
2022-08-05T00:15:00.231Z,3.53
2022-08-05T00:20:21.778Z,3.88
2022-08-05T00:25:23.284Z,2.20
2022-08-05T00:30:29.232Z,3.17
2022-08-05T00:35:33.888Z,2.38
2022-08-05T00:40:53.418Z,2.75
2022-08-05T00:45:55.464Z,2.30
2022-08-05T00:50:56.975Z,2.67
2022-08-05T00:55:58.500Z,4.85
2022-08-05T01:01:00.947Z,2.50
2022-08-05T01:06:02.599Z,2.35
2022-08-05T01:11:36.754Z,2.20
2022-08-05T01:16:44.518Z,2.35
2022-08-05T01:21:58.224Z,2.30
2022-08-05T01:27:22.133Z,4.85
2022-08-05T01:32:27.709Z,2.92
2022-08-05T01:37:53.240Z,2.78
2022-08-05T01:42:58.053Z,3.63
2022-08-05T01:48:01.291Z,2.85
2022-08-05T01:53:07.838Z,4.95
2022-08-05T01:58:15.343Z,4.03
2022-08-05T02:03:31.805Z,3.65
2022-08-05T02:08:40.761Z,3.15
2022-08-05T02:14:07.701Z,2.80
2022-08-05T02:19:20.181Z,3.83
2022-08-05T02:24:28.591Z,2.85
2022-08-05T02:29:58.749Z,2.90
2022-08-05T02:34:54.767Z,2.70
2022-08-05T02:39:57.231Z,3.33
2022-08-05T02:44:59.865Z,2.72
2022-08-05T02:50:04.500Z,2.50
2022-08-05T02:55:10.824Z,3.20
2022-08-05T03:00:15.080Z,3.22
2022-08-05T03:05:17.222Z,4.50
2022-08-05T03:10:25.316Z,4.17
2022-08-05T03:15:27.013Z,6.60
2022-08-05T03:20:29.818Z,4.53
2022-08-05T03:26:04.896Z,5.17
2022-08-05T03:30:54.213Z,5.07
2022-08-05T03:35:57.944Z,3.47
2022-08-05T03:40:59.593Z,4.90
2022-08-05T03:46:05.589Z,4.90
2022-08-05T03:52:37.589Z,5.33
2022-08-05T03:56:44.741Z,5.57
2022-08-05T04:01:50.334Z,6.57
2022-08-05T04:06:52.208Z,5.97
2022-08-05T04:11:56.741Z,6.87
2022-08-05T04:16:59.978Z,7.07
2022-08-05T04:22:08.747Z,6.47
2022-08-05T04:27:13.654Z,6.97
2022-08-05T04:32:20.037Z,5.53
2022-08-05T04:38:02.323Z,8.30
2022-08-05T04:42:54.562Z,6.23
2022-08-05T04:48:26.915Z,8.43
2022-08-05T04:53:29.109Z,5.80
2022-08-05T04:58:35.402Z,6.27
2022-08-05T05:03:42.257Z,7.73
2022-08-05T05:08:44.354Z,7.97
2022-08-05T05:13:51.518Z,7.70
2022-08-05T05:19:17.823Z,5.47
2022-08-05T05:24:19.417Z,6.07
2022-08-05T05:29:20.908Z,8.50
2022-08-05T05:34:26.632Z,8.20
2022-08-05T05:39:31.709Z,9.30
2022-08-05T05:44:37.743Z,10.83
2022-08-05T05:49:44.918Z,6.27
2022-08-05T05:54:54.188Z,10.07
2022-08-05T05:59:55.871Z,7.23
2022-08-05T06:04:58.811Z,8.33
2022-08-05T06:10:10.062Z,9.67
2022-08-05T06:15:23.747Z,8.67
2022-08-05T06:20:25.923Z,10.63
2022-08-05T06:26:13.856Z,9.37
2022-08-05T06:30:52.056Z,11.07
2022-08-05T06:36:07.959Z,10.13
2022-08-05T06:41:12.624Z,11.80
2022-08-05T06:46:15.163Z,14.60
2022-08-05T06:51:23.806Z,16.60
2022-08-05T06:56:34.982Z,16.10
2022-08-05T07:01:36.903Z,21.53
2022-08-05T07:06:38.447Z,21.60
2022-08-05T07:11:40.122Z,25.47
2022-08-05T07:17:56.545Z,26.07
2022-08-05T07:22:11.818Z,25.87
2022-08-05T07:27:17.340Z,22.10
2022-08-05T07:32:18.850Z,20.77
2022-08-05T07:37:29.087Z,22.87
2022-08-05T07:42:39.412Z,23.07
2022-08-05T07:47:45.670Z,24.47
2022-08-05T07:52:47.266Z,22.93
2022-08-05T07:58:02.421Z,18.93
2022-08-05T08:03:15.354Z,17.23
2022-08-05T08:08:19.970Z,15.23
2022-08-05T08:13:29.179Z,12.20
2022-08-05T08:18:31.477Z,11.23
2022-08-05T08:24:01.192Z,11.80
2022-08-05T08:28:55.260Z,11.55
2022-08-05T08:34:01.450Z,12.07
2022-08-05T08:39:03.603Z,12.65
2022-08-05T08:45:19.418Z,13.82
2022-08-05T08:50:05.894Z,11.75
2022-08-05T08:54:53.385Z,14.73
2022-08-05T08:59:56.082Z,13.27
2022-08-05T09:05:16.955Z,16.13
2022-08-05T09:10:19.798Z,27.50
2022-08-05T09:15:22.006Z,22.48
2022-08-05T09:20:36.633Z,19.85
2022-08-05T09:26:01.457Z,18.10
2022-08-05T09:31:22.637Z,21.25
2022-08-05T09:36:55.697Z,15.25
2022-08-05T09:42:03.866Z,14.07
2022-08-05T09:47:22.810Z,13.30
2022-08-05T09:52:45.201Z,14.00
2022-08-05T09:57:47.687Z,14.13
2022-08-05T10:02:51.132Z,13.32
2022-08-05T10:08:35.204Z,13.52
2022-08-05T10:13:27.206Z,17.00
2022-08-05T10:18:34.521Z,19.47
2022-08-05T10:24:00.150Z,21.33
2022-08-05T10:29:00.240Z,14.23
2022-08-05T10:34:02.048Z,14.50
2022-08-05T10:39:15.309Z,15.00
2022-08-05T10:44:28.553Z,14.10
2022-08-05T10:50:31.749Z,13.50
2022-08-05T10:55:25.937Z,15.20
2022-08-05T11:00:29.856Z,11.93
2022-08-05T11:05:35.961Z,11.37
2022-08-05T11:10:38.640Z,10.13
2022-08-05T11:16:21.570Z,6.13
2022-08-05T11:21:48.680Z,3.80
2022-08-05T11:27:51.138Z,3.90
2022-08-05T11:33:25.594Z,3.00
2022-08-05T11:38:51.246Z,2.10
2022-08-05T11:44:05.605Z,1.80
2022-08-05T11:49:13.422Z,2.10
2022-08-05T11:54:33.400Z,1.80
2022-08-05T11:59:49.907Z,2.47
2022-08-05T12:04:59.238Z,2.43
2022-08-05T12:10:06.223Z,4.10
2022-08-05T12:15:35.739Z,2.43
2022-08-05T12:20:40.627Z,2.40
2022-08-05T12:26:09.340Z,2.10
2022-08-05T12:31:10.921Z,2.67
2022-08-05T12:36:25.086Z,1.67
2022-08-05T12:41:34.215Z,1.77
2022-08-05T12:46:37.689Z,2.03
2022-08-05T12:52:13.080Z,2.00
2022-08-05T12:57:13.102Z,2.47
2022-08-05T13:02:27.466Z,1.93
2022-08-05T13:07:57.098Z,2.00
2022-08-05T13:12:57.914Z,3.17
2022-08-05T13:18:00.128Z,1.73
2022-08-05T13:23:02.580Z,1.80
2022-08-05T13:28:10.474Z,2.05
2022-08-05T13:34:20.359Z,1.55
2022-08-05T13:38:36.076Z,1.65
2022-08-05T13:43:45.475Z,1.73
2022-08-05T13:49:00.579Z,1.67
2022-08-05T13:54:02.690Z,1.50
2022-08-05T13:59:06.320Z,1.80
2022-08-05T14:04:39.680Z,1.95
2022-08-05T14:09:42.921Z,2.45
2022-08-05T14:14:48.532Z,2.22
2022-08-05T14:19:56.188Z,2.50
2022-08-05T14:25:02.177Z,2.30
2022-08-05T14:30:20.728Z,3.50
2022-08-05T14:35:23.246Z,3.15
2022-08-05T14:40:39.126Z,2.40
2022-08-05T14:45:40.733Z,3.58
2022-08-05T14:50:42.849Z,3.15
2022-08-05T14:55:44.365Z,2.83
2022-08-05T15:00:58.786Z,3.17
2022-08-05T15:06:13.433Z,2.95
2022-08-05T15:11:17.395Z,3.20
2022-08-05T15:16:18.906Z,3.42
2022-08-05T15:21:21.174Z,2.97
2022-08-05T15:26:32.058Z,3.55
2022-08-05T15:31:34.772Z,3.50
2022-08-05T15:36:36.752Z,2.75
2022-08-05T15:41:55.410Z,2.63
2022-08-05T15:47:01.120Z,2.45
2022-08-05T15:52:13.627Z,1.80
2022-08-05T15:57:24.956Z,1.67
2022-08-05T16:02:29.509Z,2.20
2022-08-05T16:07:31.576Z,2.58
2022-08-05T16:12:33.095Z,1.90
2022-08-05T16:17:34.735Z,3.42
2022-08-05T16:22:36.364Z,2.40
2022-08-05T16:28:00.152Z,2.15
2022-08-05T16:33:01.909Z,2.35
2022-08-05T16:38:24.509Z,2.08
2022-08-05T16:43:26.319Z,2.92
2022-08-05T16:48:33.591Z,2.25
2022-08-05T16:54:02.950Z,1.40
2022-08-05T16:59:07.903Z,2.40
2022-08-05T17:04:09.811Z,1.70
2022-08-05T17:09:11.695Z,1.80
2022-08-05T17:14:34.417Z,2.00
2022-08-05T17:19:37.099Z,1.55
2022-08-05T17:24:42.995Z,2.42
2022-08-05T17:30:00.753Z,1.17
2022-08-05T17:35:04.490Z,0.95
2022-08-05T17:40:10.374Z,2.57
2022-08-05T17:45:20.129Z,2.00
2022-08-05T17:50:28.558Z,3.08
2022-08-05T17:55:37.317Z,0.80
2022-08-05T18:00:44.775Z,1.60
2022-08-05T18:05:53.395Z,1.20
2022-08-05T18:10:55.760Z,1.10
2022-08-05T18:15:59.102Z,0.90
2022-08-05T18:21:00.729Z,0.80
2022-08-05T18:26:03.291Z,0.60
2022-08-05T18:31:07.249Z,1.77
2022-08-05T18:36:15.653Z,1.20
2022-08-05T18:41:55.476Z,1.53
2022-08-05T18:46:41.263Z,1.55
2022-08-05T18:52:08.352Z,1.30
2022-08-05T18:57:15.202Z,0.47
2022-08-05T19:02:27.867Z,4.53
2022-08-05T19:07:45.032Z,1.52
2022-08-05T19:12:48.563Z,0.40
2022-08-05T19:18:08.355Z,1.17
2022-08-05T19:24:04.970Z,1.60
2022-08-05T19:28:34.599Z,1.83
2022-08-05T19:33:37.983Z,0.43
2022-08-05T19:38:43.616Z,0.77
2022-08-05T19:44:06.580Z,0.70
2022-08-05T19:49:07.088Z,0.50
2022-08-05T19:54:21.852Z,1.03
2022-08-05T19:59:55.751Z,0.80
2022-08-05T20:04:58.432Z,1.07
2022-08-05T20:10:00.855Z,1.43
2022-08-05T20:15:02.451Z,0.60
2022-08-05T20:20:09.457Z,0.63
2022-08-05T20:25:12.546Z,1.60
2022-08-05T20:30:15.414Z,0.70
2022-08-05T20:35:22.236Z,2.00
2022-08-05T20:40:27.362Z,1.47
2022-08-05T20:45:56.653Z,1.63
2022-08-05T20:50:55.744Z,1.00
2022-08-05T20:56:08.562Z,0.90
2022-08-05T21:01:12.654Z,0.70
2022-08-05T21:06:27.782Z,1.40
2022-08-05T21:12:06.559Z,1.00
2022-08-05T21:16:56.963Z,1.07
2022-08-05T21:21:59.436Z,0.87
2022-08-05T21:27:01.023Z,1.13
2022-08-05T21:32:03.205Z,1.00
2022-08-05T21:37:05.035Z,0.80
2022-08-05T21:42:07.089Z,2.60
2022-08-05T21:47:54.739Z,1.03
2022-08-05T21:52:50.339Z,1.10
2022-08-05T21:57:51.907Z,2.00
2022-08-05T22:02:55.335Z,1.10
2022-08-05T22:07:59.546Z,1.20
2022-08-05T22:14:06.259Z,2.30
2022-08-05T22:18:25.942Z,1.17
2022-08-05T22:24:02.593Z,1.30
2022-08-05T22:29:05.887Z,1.30
2022-08-05T22:34:08.016Z,1.20
2022-08-05T22:39:12.841Z,1.73
2022-08-05T22:44:14.695Z,2.20
2022-08-05T22:50:17.549Z,1.23
2022-08-05T22:54:48.781Z,1.50
2022-08-05T22:59:54.136Z,0.80
2022-08-05T23:04:56.014Z,1.20
2022-08-05T23:10:02.129Z,1.20
2022-08-05T23:15:08.690Z,1.50
2022-08-05T23:20:17.669Z,2.73
2022-08-05T23:25:55.346Z,1.40
2022-08-05T23:30:43.715Z,1.20
2022-08-05T23:35:45.736Z,2.13
2022-08-05T23:40:50.136Z,2.23
2022-08-05T23:45:53.962Z,0.90
2022-08-05T23:50:55.648Z,1.00
2022-08-05T23:55:57.146Z,1.87
